createdAt,value
2019-03-31T00:01:13.897Z,27.70
2019-03-31T00:03:15.367Z,22.80
2019-03-31T00:05:16.880Z,20.93
2019-03-31T00:07:18.649Z,23.73
2019-03-31T00:09:20.400Z,23.63
2019-03-31T00:11:22.492Z,21.73
2019-03-31T00:13:23.973Z,21.60
2019-03-31T00:15:25.468Z,23.40
2019-03-31T00:17:26.973Z,25.53
2019-03-31T00:19:28.461Z,27.47
2019-03-31T00:21:29.937Z,27.23
2019-03-31T00:23:31.432Z,33.07
2019-03-31T00:25:33.312Z,30.27
2019-03-31T00:27:34.818Z,30.90
2019-03-31T00:29:36.329Z,31.63
2019-03-31T00:31:38.073Z,32.70
2019-03-31T00:33:39.572Z,25.60
2019-03-31T00:35:41.081Z,29.10
2019-03-31T00:37:42.582Z,30.63
2019-03-31T00:39:44.064Z,31.43
2019-03-31T00:41:45.551Z,31.70
2019-03-31T00:43:47.320Z,31.37
2019-03-31T00:45:49.039Z,30.07
2019-03-31T00:47:50.828Z,31.57
2019-03-31T00:49:52.313Z,29.97
2019-03-31T00:51:54.073Z,28.83
2019-03-31T00:53:55.576Z,27.13
2019-03-31T00:55:57.060Z,30.53
2019-03-31T00:57:58.831Z,28.00
2019-03-31T01:00:00.610Z,27.37
2019-03-31T01:02:07.737Z,24.90
2019-03-31T01:04:10.325Z,26.17
2019-03-31T01:06:12.000Z,22.53
2019-03-31T01:08:14.653Z,27.23
2019-03-31T01:10:16.432Z,25.20
2019-03-31T01:12:18.339Z,28.00
2019-03-31T01:14:20.372Z,31.20
2019-03-31T01:16:22.016Z,30.20
2019-03-31T01:18:23.592Z,31.03
2019-03-31T01:20:25.401Z,35.93
2019-03-31T01:22:26.892Z,33.50
2019-03-31T01:24:28.392Z,30.70
2019-03-31T01:26:29.985Z,28.73
2019-03-31T01:28:31.485Z,30.77
2019-03-31T01:30:32.988Z,29.90
2019-03-31T01:32:34.495Z,35.53
2019-03-31T01:34:36.278Z,34.57
2019-03-31T01:36:37.780Z,30.73
2019-03-31T01:38:39.500Z,28.90
2019-03-31T01:40:41.006Z,27.63
2019-03-31T01:42:42.864Z,33.50
2019-03-31T01:44:44.372Z,28.73
2019-03-31T01:46:45.849Z,29.47
2019-03-31T01:48:47.355Z,27.23
2019-03-31T01:50:49.360Z,26.73
2019-03-31T01:52:50.872Z,24.53
2019-03-31T01:54:52.381Z,23.40
2019-03-31T01:56:54.237Z,23.47
2019-03-31T01:58:56.444Z,24.30
2019-03-31T02:00:59.735Z,22.10
2019-03-31T02:03:01.325Z,22.87
2019-03-31T02:05:03.057Z,19.90
2019-03-31T02:07:05.537Z,20.40
2019-03-31T02:09:07.020Z,21.53
2019-03-31T02:11:09.005Z,20.53
2019-03-31T02:13:10.476Z,22.60
2019-03-31T02:15:11.952Z,24.47
2019-03-31T02:17:13.453Z,22.77
2019-03-31T02:19:14.936Z,31.37
2019-03-31T02:21:16.434Z,22.17
2019-03-31T02:23:18.256Z,25.07
2019-03-31T02:25:19.763Z,23.93
2019-03-31T02:27:21.261Z,24.77
2019-03-31T02:29:23.013Z,31.13
2019-03-31T02:31:24.585Z,31.53
2019-03-31T02:33:26.203Z,28.23
2019-03-31T02:35:27.682Z,25.87
2019-03-31T02:37:29.185Z,29.87
2019-03-31T02:39:30.665Z,26.17
2019-03-31T02:41:32.154Z,22.87
2019-03-31T02:43:33.666Z,24.57
2019-03-31T02:45:35.124Z,22.57
2019-03-31T02:47:36.961Z,25.97
2019-03-31T02:49:38.452Z,23.77
2019-03-31T02:51:40.289Z,25.27
2019-03-31T02:53:41.753Z,21.57
2019-03-31T02:55:43.246Z,24.40
2019-03-31T02:57:45.040Z,22.00
2019-03-31T02:59:46.520Z,23.17
2019-03-31T03:01:48.013Z,20.90
2019-03-31T03:03:49.550Z,21.17
2019-03-31T03:05:51.328Z,20.63
2019-03-31T03:07:53.065Z,22.37
2019-03-31T03:09:54.834Z,20.63
2019-03-31T03:11:56.313Z,27.50
2019-03-31T03:13:58.729Z,25.50
2019-03-31T03:16:25.895Z,25.90
2019-03-31T03:18:27.365Z,28.67
2019-03-31T03:20:29.220Z,29.87
2019-03-31T03:22:31.265Z,36.60
2019-03-31T03:24:33.118Z,32.37
2019-03-31T03:26:34.600Z,33.83
2019-03-31T03:28:36.107Z,36.20
2019-03-31T03:30:38.258Z,33.10
2019-03-31T03:32:40.013Z,33.83
2019-03-31T03:34:41.569Z,31.03
2019-03-31T03:36:43.724Z,29.87
2019-03-31T03:38:45.540Z,29.03
2019-03-31T03:40:47.362Z,25.10
2019-03-31T03:42:48.837Z,24.50
2019-03-31T03:44:50.317Z,29.00
2019-03-31T03:46:51.828Z,31.13
2019-03-31T03:48:53.361Z,29.70
2019-03-31T03:50:54.934Z,28.67
2019-03-31T03:52:56.417Z,34.07
2019-03-31T03:54:57.890Z,32.20
2019-03-31T03:56:59.392Z,30.87
2019-03-31T03:59:01.197Z,32.30
2019-03-31T04:01:04.777Z,32.93
2019-03-31T04:03:06.258Z,32.63
2019-03-31T04:05:07.744Z,33.57
2019-03-31T04:07:09.565Z,30.13
2019-03-31T04:09:11.608Z,27.03
2019-03-31T04:11:22.822Z,31.03
2019-03-31T04:13:24.311Z,30.73
2019-03-31T04:15:25.794Z,30.97
2019-03-31T04:17:27.553Z,31.83
2019-03-31T04:19:29.299Z,31.87
2019-03-31T04:21:30.770Z,30.37
2019-03-31T04:23:32.271Z,30.67
2019-03-31T04:25:33.989Z,26.40
2019-03-31T04:27:35.822Z,25.77
2019-03-31T04:29:37.294Z,24.80
2019-03-31T04:31:38.901Z,25.53
2019-03-31T04:33:50.472Z,25.73
2019-03-31T04:35:43.776Z,23.20
2019-03-31T04:37:45.835Z,26.20
2019-03-31T04:39:47.309Z,26.80
2019-03-31T04:41:48.788Z,24.70
2019-03-31T04:43:50.293Z,25.20
2019-03-31T04:45:51.784Z,25.97
2019-03-31T04:47:53.563Z,28.97
2019-03-31T04:49:55.041Z,27.93
2019-03-31T04:51:56.537Z,28.13
2019-03-31T04:53:58.303Z,27.23
2019-03-31T04:55:59.775Z,26.10
2019-03-31T04:58:01.272Z,25.17
2019-03-31T05:00:03.352Z,27.07
2019-03-31T05:02:04.836Z,23.90
2019-03-31T05:04:06.333Z,24.17
2019-03-31T05:06:07.839Z,26.83
2019-03-31T05:08:09.668Z,29.67
2019-03-31T05:10:11.149Z,31.63
2019-03-31T05:12:12.642Z,28.23
2019-03-31T05:14:14.136Z,30.90
2019-03-31T05:16:15.613Z,25.23
2019-03-31T05:18:17.104Z,27.17
2019-03-31T05:20:18.868Z,24.43
2019-03-31T05:22:20.938Z,23.03
2019-03-31T05:24:22.754Z,23.63
2019-03-31T05:26:24.277Z,32.30
2019-03-31T05:28:25.757Z,29.57
2019-03-31T05:30:27.253Z,24.13
2019-03-31T05:32:29.293Z,24.57
2019-03-31T05:34:30.794Z,22.83
2019-03-31T05:36:32.284Z,20.83
2019-03-31T05:38:33.790Z,23.07
2019-03-31T05:40:35.517Z,29.17
2019-03-31T05:42:37.364Z,28.93
2019-03-31T05:44:38.856Z,30.97
2019-03-31T05:46:40.329Z,28.00
2019-03-31T05:48:41.830Z,30.50
2019-03-31T05:50:43.300Z,32.57
2019-03-31T05:52:44.785Z,29.10
2019-03-31T05:54:46.298Z,29.63
2019-03-31T05:56:48.096Z,30.80
2019-03-31T05:58:49.573Z,32.23
2019-03-31T06:00:51.576Z,32.10
2019-03-31T06:02:53.349Z,34.20
2019-03-31T06:04:54.866Z,28.67
2019-03-31T06:06:56.706Z,31.17
2019-03-31T06:08:58.183Z,31.47
2019-03-31T06:10:59.684Z,33.00
2019-03-31T06:13:01.176Z,32.57
2019-03-31T06:15:02.708Z,36.90
2019-03-31T06:17:04.541Z,32.57
2019-03-31T06:19:06.421Z,30.70
2019-03-31T06:21:07.896Z,31.27
2019-03-31T06:23:09.694Z,30.30
2019-03-31T06:25:11.485Z,37.43
2019-03-31T06:27:15.781Z,30.93
2019-03-31T06:29:16.680Z,31.07
2019-03-31T06:31:18.172Z,29.33
2019-03-31T06:33:19.652Z,33.83
2019-03-31T06:35:21.527Z,31.10
2019-03-31T06:37:23.128Z,30.90
2019-03-31T06:39:24.607Z,29.40
2019-03-31T06:41:26.411Z,29.90
2019-03-31T06:43:27.889Z,29.10
2019-03-31T06:45:29.701Z,26.33
2019-03-31T06:47:31.186Z,29.60
2019-03-31T06:49:32.660Z,31.23
2019-03-31T06:51:34.453Z,28.60
2019-03-31T06:53:35.936Z,28.77
2019-03-31T06:55:37.417Z,25.63
2019-03-31T06:57:38.914Z,27.57
2019-03-31T06:59:40.422Z,25.23
2019-03-31T07:01:42.192Z,26.77
2019-03-31T07:03:43.684Z,25.47
2019-03-31T07:05:45.164Z,27.30
2019-03-31T07:07:46.655Z,27.57
2019-03-31T07:09:48.157Z,28.27
2019-03-31T07:11:49.935Z,27.43
2019-03-31T07:13:51.715Z,27.30
2019-03-31T07:15:53.220Z,24.50
2019-03-31T07:17:54.710Z,26.03
2019-03-31T07:19:56.208Z,29.23
2019-03-31T07:21:57.702Z,27.93
2019-03-31T07:23:59.167Z,27.83
2019-03-31T07:26:00.668Z,32.37
2019-03-31T07:28:02.157Z,26.50
2019-03-31T07:30:07.115Z,29.70
2019-03-31T07:32:07.916Z,29.00
2019-03-31T07:34:09.393Z,32.43
2019-03-31T07:36:10.868Z,31.43
2019-03-31T07:38:12.385Z,30.47
2019-03-31T07:40:14.119Z,26.67
2019-03-31T07:42:15.712Z,27.63
2019-03-31T07:44:17.304Z,26.13
2019-03-31T07:46:18.794Z,28.27
2019-03-31T07:48:20.633Z,25.97
2019-03-31T07:50:22.147Z,27.80
2019-03-31T07:52:23.620Z,29.50
2019-03-31T07:54:25.120Z,28.20
2019-03-31T07:56:26.601Z,24.30
2019-03-31T07:58:28.113Z,25.57
2019-03-31T08:00:29.615Z,28.27
2019-03-31T08:02:31.148Z,30.20
2019-03-31T08:04:32.637Z,27.27
2019-03-31T08:06:34.148Z,27.57
2019-03-31T08:08:35.641Z,28.47
2019-03-31T08:10:37.141Z,24.50
2019-03-31T08:12:38.640Z,31.53
2019-03-31T08:14:40.442Z,27.70
2019-03-31T08:16:41.933Z,25.73
2019-03-31T08:18:43.416Z,28.00
2019-03-31T08:20:44.992Z,25.77
2019-03-31T08:22:46.480Z,25.93
2019-03-31T08:24:47.968Z,24.83
2019-03-31T08:26:49.484Z,25.57
2019-03-31T08:28:51.003Z,24.57
2019-03-31T08:30:52.512Z,24.00
2019-03-31T08:32:53.995Z,26.33
2019-03-31T08:34:55.509Z,25.67
2019-03-31T08:36:57.026Z,23.70
2019-03-31T08:38:58.838Z,25.07
2019-03-31T08:41:00.333Z,24.33
2019-03-31T08:43:02.220Z,24.80
2019-03-31T08:45:03.880Z,24.60
2019-03-31T08:47:05.968Z,25.37
2019-03-31T08:49:07.476Z,20.97
2019-03-31T08:51:09.081Z,24.23
2019-03-31T08:53:10.585Z,25.93
2019-03-31T08:55:12.140Z,24.13
2019-03-31T08:57:13.612Z,24.47
2019-03-31T08:59:15.139Z,23.27
2019-03-31T09:01:16.966Z,24.77
2019-03-31T09:03:18.792Z,25.03
2019-03-31T09:05:20.312Z,23.00
2019-03-31T09:07:21.808Z,27.53
2019-03-31T09:09:23.304Z,26.83
2019-03-31T09:11:24.798Z,21.27
2019-03-31T09:13:26.301Z,26.53
2019-03-31T09:15:28.164Z,24.20
2019-03-31T09:17:29.671Z,25.03
2019-03-31T09:19:31.157Z,24.30
2019-03-31T09:21:32.944Z,24.20
2019-03-31T09:23:34.879Z,26.53
2019-03-31T09:25:36.440Z,24.57
2019-03-31T09:27:37.937Z,22.33
2019-03-31T09:29:40.160Z,23.02
2019-03-31T09:31:41.665Z,24.90
2019-03-31T09:33:43.457Z,25.30
2019-03-31T09:35:45.304Z,24.80
2019-03-31T09:37:47.076Z,23.67
2019-03-31T09:39:48.565Z,29.42
2019-03-31T09:41:50.085Z,23.05
2019-03-31T09:43:51.572Z,25.40
2019-03-31T09:45:53.076Z,23.97
2019-03-31T09:47:54.557Z,23.07
2019-03-31T09:49:56.044Z,23.77
2019-03-31T09:51:57.860Z,23.83
2019-03-31T09:53:59.347Z,23.57
2019-03-31T09:56:00.832Z,24.15
2019-03-31T09:58:02.328Z,22.75
2019-03-31T10:00:04.446Z,22.98
2019-03-31T10:02:06.104Z,21.73
2019-03-31T10:04:07.597Z,24.02
2019-03-31T10:06:11.114Z,23.73
2019-03-31T10:08:12.814Z,25.52
2019-03-31T10:10:19.956Z,25.00
2019-03-31T10:12:21.481Z,21.93
2019-03-31T10:14:22.964Z,24.43
2019-03-31T10:16:24.448Z,20.77
2019-03-31T10:18:26.016Z,22.80
2019-03-31T10:20:31.136Z,23.85
2019-03-31T10:22:31.392Z,23.83
2019-03-31T10:24:33.156Z,23.47
2019-03-31T10:26:34.656Z,21.17
2019-03-31T10:28:36.142Z,27.82
2019-03-31T10:30:37.913Z,22.50
2019-03-31T10:32:39.431Z,21.73
2019-03-31T10:34:41.520Z,23.85
2019-03-31T10:36:44.818Z,22.27
2019-03-31T10:38:46.993Z,18.82
2019-03-31T10:40:48.765Z,19.32
2019-03-31T10:42:50.254Z,20.72
2019-03-31T10:44:51.847Z,22.48
2019-03-31T10:46:53.448Z,18.20
2019-03-31T10:48:55.233Z,14.70
2019-03-31T10:50:56.728Z,12.73
2019-03-31T10:52:58.211Z,13.43
2019-03-31T10:55:00.100Z,13.80
2019-03-31T10:57:01.600Z,14.25
2019-03-31T10:59:03.084Z,15.73
2019-03-31T11:01:04.588Z,15.10
2019-03-31T11:03:06.099Z,15.13
2019-03-31T11:05:07.932Z,13.53
2019-03-31T11:07:09.444Z,13.25
2019-03-31T11:09:11.301Z,13.93
2019-03-31T11:11:12.803Z,14.30
2019-03-31T11:13:14.288Z,13.58
2019-03-31T11:15:16.104Z,14.43
2019-03-31T11:17:17.588Z,12.78
2019-03-31T11:19:19.092Z,15.23
2019-03-31T11:21:26.224Z,16.73
2019-03-31T11:23:29.316Z,16.87
2019-03-31T11:25:30.816Z,14.70
2019-03-31T11:27:32.572Z,15.53
2019-03-31T11:29:34.064Z,14.98
2019-03-31T11:31:35.568Z,13.40
2019-03-31T11:33:37.093Z,13.72
2019-03-31T11:35:38.580Z,14.45
2019-03-31T11:37:40.097Z,12.75
2019-03-31T11:39:41.588Z,14.05
2019-03-31T11:41:43.084Z,14.98
2019-03-31T11:43:44.569Z,12.68
2019-03-31T11:45:46.082Z,11.38
2019-03-31T11:47:47.625Z,13.35
2019-03-31T11:49:49.164Z,12.47
2019-03-31T11:51:50.905Z,11.05
2019-03-31T11:53:52.392Z,12.68
2019-03-31T11:55:54.200Z,12.03
2019-03-31T11:57:56.040Z,10.82
2019-03-31T11:59:57.636Z,13.08
2019-03-31T12:01:59.140Z,11.30
2019-03-31T12:04:00.633Z,14.03
2019-03-31T12:06:02.152Z,8.68
2019-03-31T12:08:04.164Z,12.70
2019-03-31T12:10:05.657Z,14.20
2019-03-31T12:12:07.169Z,12.45
2019-03-31T12:14:08.912Z,13.28
2019-03-31T12:16:10.431Z,11.93
2019-03-31T12:18:11.925Z,13.45
2019-03-31T12:20:13.426Z,11.00
2019-03-31T12:22:15.242Z,12.35
2019-03-31T12:24:16.721Z,10.72
2019-03-31T12:26:18.232Z,10.13
2019-03-31T12:28:19.717Z,12.97
2019-03-31T12:30:27.305Z,10.25
2019-03-31T12:32:28.816Z,10.80
2019-03-31T12:34:30.301Z,10.93
2019-03-31T12:36:32.005Z,12.88
2019-03-31T12:38:33.528Z,13.00
2019-03-31T12:40:35.024Z,12.35
2019-03-31T12:42:36.504Z,10.80
2019-03-31T12:44:38.330Z,11.88
2019-03-31T12:46:40.064Z,12.30
2019-03-31T12:48:41.584Z,11.55
2019-03-31T12:50:43.087Z,11.68
2019-03-31T12:52:46.952Z,11.60
2019-03-31T12:54:47.995Z,11.40
2019-03-31T12:56:49.476Z,11.68
2019-03-31T12:58:51.000Z,12.00
2019-03-31T13:00:52.476Z,12.10
2019-03-31T13:02:53.966Z,12.70
2019-03-31T13:04:58.510Z,11.50
2019-03-31T13:06:59.993Z,12.93
2019-03-31T13:09:01.480Z,11.20
2019-03-31T13:11:03.593Z,11.20
2019-03-31T13:13:05.450Z,11.75
2019-03-31T13:15:06.985Z,9.78
2019-03-31T13:17:08.484Z,10.98
2019-03-31T13:19:09.973Z,10.05
2019-03-31T13:21:11.468Z,9.58
2019-03-31T13:23:13.288Z,9.43
2019-03-31T13:25:14.805Z,12.73
2019-03-31T13:27:16.632Z,10.70
2019-03-31T13:29:18.128Z,9.77
2019-03-31T13:31:19.613Z,8.57
2019-03-31T13:33:21.116Z,10.30
2019-03-31T13:35:22.888Z,9.95
2019-03-31T13:37:24.412Z,8.60
2019-03-31T13:39:25.896Z,8.70
2019-03-31T13:41:27.423Z,9.15
2019-03-31T13:43:29.252Z,9.70
2019-03-31T13:45:30.740Z,10.45
2019-03-31T13:47:32.809Z,8.93
2019-03-31T13:49:34.628Z,9.23
2019-03-31T13:51:36.477Z,8.68
2019-03-31T13:53:37.961Z,8.38
2019-03-31T13:55:39.437Z,8.93
2019-03-31T13:57:42.513Z,8.27
2019-03-31T13:59:44.339Z,7.33
2019-03-31T14:01:45.948Z,11.78
2019-03-31T14:03:47.787Z,7.53
2019-03-31T14:05:49.276Z,7.57
2019-03-31T14:07:50.766Z,13.08
2019-03-31T14:09:52.293Z,9.50
2019-03-31T14:11:53.781Z,9.77
2019-03-31T14:13:56.096Z,9.80
2019-03-31T14:15:58.213Z,9.97
2019-03-31T14:17:59.998Z,8.73
2019-03-31T14:20:01.501Z,7.90
2019-03-31T14:22:02.993Z,10.75
2019-03-31T14:24:04.472Z,10.30
2019-03-31T14:26:05.967Z,10.27
2019-03-31T14:28:07.468Z,11.63
2019-03-31T14:30:08.975Z,14.67
2019-03-31T14:32:11.132Z,12.97
2019-03-31T14:34:12.620Z,8.27
2019-03-31T14:36:14.129Z,8.58
2019-03-31T14:38:15.612Z,14.68
2019-03-31T14:40:17.104Z,11.87
2019-03-31T14:42:18.625Z,9.17
2019-03-31T14:44:20.132Z,8.87
2019-03-31T14:46:21.873Z,8.27
2019-03-31T14:48:23.367Z,8.23
2019-03-31T14:50:30.372Z,7.63
2019-03-31T14:52:31.880Z,7.80
2019-03-31T14:54:33.384Z,7.87
2019-03-31T14:56:34.873Z,8.43
2019-03-31T14:58:36.371Z,8.23
2019-03-31T15:00:38.239Z,9.53
2019-03-31T15:02:39.737Z,8.47
2019-03-31T15:04:41.648Z,7.47
2019-03-31T15:06:43.440Z,8.07
2019-03-31T15:08:54.228Z,10.20
2019-03-31T15:10:48.768Z,8.70
2019-03-31T15:12:50.244Z,8.83
2019-03-31T15:14:52.088Z,9.10
2019-03-31T15:16:53.600Z,8.10
2019-03-31T15:18:55.096Z,9.30
2019-03-31T15:20:56.652Z,9.63
2019-03-31T15:22:58.465Z,8.17
2019-03-31T15:24:59.978Z,10.50
2019-03-31T15:27:01.469Z,9.17
2019-03-31T15:29:03.379Z,7.07
2019-03-31T15:31:05.220Z,9.80
2019-03-31T15:33:07.120Z,8.53
2019-03-31T15:35:08.653Z,9.20
2019-03-31T15:37:10.156Z,7.33
2019-03-31T15:39:11.641Z,8.63
2019-03-31T15:41:20.984Z,7.80
2019-03-31T15:43:16.588Z,8.10
2019-03-31T15:45:18.078Z,7.67
2019-03-31T15:47:19.868Z,8.97
2019-03-31T15:49:21.357Z,8.20
2019-03-31T15:51:22.868Z,11.13
2019-03-31T15:53:24.381Z,8.83
2019-03-31T15:55:26.216Z,8.00
2019-03-31T15:57:27.736Z,8.47
2019-03-31T15:59:29.239Z,7.47
2019-03-31T16:01:30.722Z,10.10
2019-03-31T16:03:35.208Z,6.80
2019-03-31T16:05:36.697Z,9.17
2019-03-31T16:07:38.201Z,9.00
2019-03-31T16:09:39.699Z,8.17
2019-03-31T16:11:53.206Z,9.23
2019-03-31T16:13:44.373Z,8.67
2019-03-31T16:15:45.880Z,9.20
2019-03-31T16:17:47.482Z,9.57
2019-03-31T16:19:48.687Z,7.53
2019-03-31T16:21:49.924Z,8.17
2019-03-31T16:23:51.511Z,9.75
2019-03-31T16:25:55.660Z,8.50
2019-03-31T16:27:56.888Z,7.23
2019-03-31T16:29:58.396Z,8.67
2019-03-31T16:31:59.691Z,7.83
2019-03-31T16:34:00.940Z,7.37
2019-03-31T16:36:02.245Z,9.57
2019-03-31T16:38:03.455Z,8.80
2019-03-31T16:40:04.705Z,8.37
2019-03-31T16:42:05.936Z,7.30
2019-03-31T16:44:07.168Z,8.57
2019-03-31T16:46:08.485Z,8.67
2019-03-31T16:48:10.013Z,7.50
2019-03-31T16:50:11.237Z,7.27
2019-03-31T16:52:12.649Z,7.60
2019-03-31T16:54:13.952Z,10.00
2019-03-31T16:56:15.281Z,7.97
2019-03-31T16:58:16.722Z,9.60
2019-03-31T17:00:18.067Z,8.53
2019-03-31T17:02:19.687Z,9.47
2019-03-31T17:04:21.018Z,8.40
2019-03-31T17:06:22.249Z,7.05
2019-03-31T17:08:23.744Z,8.87
2019-03-31T17:10:24.964Z,7.23
2019-03-31T17:12:26.462Z,10.60
2019-03-31T17:14:28.005Z,7.70
2019-03-31T17:16:29.220Z,9.47
2019-03-31T17:18:30.461Z,8.35
2019-03-31T17:20:31.676Z,8.63
2019-03-31T17:22:32.884Z,9.10
2019-03-31T17:24:34.220Z,7.50
2019-03-31T17:26:35.437Z,7.73
2019-03-31T17:28:36.636Z,8.23
2019-03-31T17:30:37.876Z,9.60
2019-03-31T17:32:39.095Z,8.47
2019-03-31T17:34:40.317Z,10.27
2019-03-31T17:36:41.553Z,10.00
2019-03-31T17:38:42.768Z,9.60
2019-03-31T17:40:44.052Z,10.37
2019-03-31T17:42:45.588Z,9.10
2019-03-31T17:44:47.141Z,8.37
2019-03-31T17:46:48.365Z,10.40
2019-03-31T17:48:49.932Z,8.20
2019-03-31T17:50:51.156Z,11.70
2019-03-31T17:52:52.420Z,8.60
2019-03-31T17:54:53.979Z,8.60
2019-03-31T17:56:55.524Z,9.83
2019-03-31T17:58:56.761Z,8.73
2019-03-31T18:00:58.304Z,9.00
2019-03-31T18:02:59.512Z,13.20
2019-03-31T18:05:00.778Z,9.88
2019-03-31T18:07:02.000Z,9.63
2019-03-31T18:09:05.200Z,9.27
2019-03-31T18:11:06.414Z,8.70
2019-03-31T18:13:07.635Z,9.00
2019-03-31T18:15:08.861Z,7.33
2019-03-31T18:17:10.103Z,8.37
2019-03-31T18:19:11.326Z,8.93
2019-03-31T18:21:12.575Z,10.07
2019-03-31T18:23:13.795Z,7.77
2019-03-31T18:25:15.358Z,8.50
2019-03-31T18:27:16.932Z,9.40
2019-03-31T18:29:18.160Z,7.73
2019-03-31T18:31:19.493Z,10.80
2019-03-31T18:33:20.709Z,8.30
2019-03-31T18:35:22.633Z,9.13
2019-03-31T18:37:24.120Z,8.20
2019-03-31T18:39:25.605Z,12.27
2019-03-31T18:41:26.856Z,8.90
2019-03-31T18:43:28.396Z,10.57
2019-03-31T18:45:29.949Z,8.70
2019-03-31T18:47:31.160Z,9.40
2019-03-31T18:49:32.364Z,9.50
2019-03-31T18:51:33.613Z,9.07
2019-03-31T18:53:40.640Z,10.57
2019-03-31T18:56:07.562Z,12.07
2019-03-31T18:58:17.638Z,12.33
2019-03-31T19:00:28.294Z,11.93
2019-03-31T19:02:47.682Z,9.37
2019-03-31T19:05:07.004Z,9.23
2019-03-31T19:07:26.470Z,11.07
2019-03-31T19:09:47.898Z,10.30
2019-03-31T19:12:07.553Z,12.33
2019-03-31T19:14:28.697Z,11.60
2019-03-31T19:16:48.399Z,12.10
2019-03-31T19:19:02.933Z,20.27
2019-03-31T19:21:11.849Z,14.67
2019-03-31T19:23:32.781Z,13.50
2019-03-31T19:25:56.593Z,13.83
2019-03-31T19:28:09.737Z,12.63
2019-03-31T19:30:18.349Z,15.10
2019-03-31T19:32:38.320Z,15.13
2019-03-31T19:34:46.558Z,13.47
2019-03-31T19:37:10.308Z,11.97
2019-03-31T19:39:31.167Z,12.73
2019-03-31T19:41:54.748Z,11.47
2019-03-31T19:44:14.127Z,12.70
2019-03-31T19:46:53.065Z,13.30
2019-03-31T19:49:03.353Z,11.40
2019-03-31T19:51:16.865Z,12.53
2019-03-31T19:53:27.118Z,15.10
2019-03-31T19:55:36.149Z,12.00
2019-03-31T19:57:55.751Z,13.67
2019-03-31T20:00:19.806Z,15.07
2019-03-31T20:02:40.695Z,14.27
2019-03-31T20:04:59.816Z,14.10
2019-03-31T20:07:21.015Z,13.40
2019-03-31T20:09:47.591Z,13.47
2019-03-31T20:12:03.637Z,15.27
2019-03-31T20:14:26.949Z,14.53
2019-03-31T20:16:39.080Z,16.53
2019-03-31T20:18:59.036Z,14.53
2019-03-31T20:21:10.435Z,14.97
2019-03-31T20:23:33.987Z,16.53
2019-03-31T20:25:54.186Z,13.43
2019-03-31T20:28:20.785Z,15.67
2019-03-31T20:30:30.235Z,13.93
2019-03-31T20:33:09.427Z,16.63
2019-03-31T20:35:30.455Z,15.60
2019-03-31T20:37:40.309Z,16.00
2019-03-31T20:39:56.829Z,16.60
2019-03-31T20:42:24.063Z,17.10
2019-03-31T20:44:25.364Z,17.90
2019-03-31T20:46:26.880Z,20.90
2019-03-31T20:48:28.099Z,18.73
2019-03-31T20:50:29.561Z,16.83
2019-03-31T20:52:31.144Z,17.90
2019-03-31T20:54:33.168Z,18.03
2019-03-31T20:56:34.672Z,19.70
2019-03-31T20:58:36.180Z,20.37
2019-03-31T21:00:37.758Z,18.77
2019-03-31T21:02:39.521Z,20.07
2019-03-31T21:04:40.729Z,20.00
2019-03-31T21:06:41.960Z,19.83
2019-03-31T21:08:43.524Z,19.23
2019-03-31T21:10:44.822Z,22.90
2019-03-31T21:12:46.041Z,20.23
2019-03-31T21:14:47.264Z,20.37
2019-03-31T21:16:48.484Z,21.90
2019-03-31T21:18:49.728Z,19.57
2019-03-31T21:20:50.952Z,22.07
2019-03-31T21:22:52.193Z,24.13
2019-03-31T21:24:53.493Z,22.17
2019-03-31T21:26:54.707Z,21.57
2019-03-31T21:28:55.952Z,21.70
2019-03-31T21:30:57.540Z,23.47
2019-03-31T21:32:59.033Z,24.07
2019-03-31T21:35:00.534Z,23.83
2019-03-31T21:37:01.912Z,25.07
2019-03-31T21:39:05.108Z,28.57
2019-03-31T21:41:06.859Z,25.73
2019-03-31T21:43:08.425Z,30.90
2019-03-31T21:45:09.663Z,30.00
2019-03-31T21:47:10.867Z,29.17
2019-03-31T21:49:12.339Z,32.70
2019-03-31T21:51:13.574Z,30.03
2019-03-31T21:53:14.808Z,34.23
2019-03-31T21:55:16.098Z,36.00
2019-03-31T21:57:17.348Z,33.03
2019-03-31T21:59:18.580Z,35.90
2019-03-31T22:01:19.824Z,38.07
2019-03-31T22:03:21.032Z,37.37
2019-03-31T22:05:23.057Z,38.23
2019-03-31T22:07:24.272Z,35.47
2019-03-31T22:09:25.765Z,40.30
2019-03-31T22:11:26.976Z,39.63
2019-03-31T22:13:28.184Z,39.93
2019-03-31T22:15:29.682Z,41.70
2019-03-31T22:17:31.144Z,41.83
2019-03-31T22:19:32.370Z,42.33
2019-03-31T22:21:33.616Z,41.00
2019-03-31T22:23:34.828Z,39.20
2019-03-31T22:25:36.427Z,42.63
2019-03-31T22:27:37.736Z,44.53
2019-03-31T22:29:38.953Z,42.20
2019-03-31T22:31:40.547Z,42.27
2019-03-31T22:33:41.965Z,45.13
2019-03-31T22:36:02.833Z,43.43
2019-03-31T22:38:04.076Z,45.93
2019-03-31T22:40:05.295Z,45.27
2019-03-31T22:42:06.524Z,45.93
2019-03-31T22:44:07.956Z,47.37
2019-03-31T22:46:09.448Z,47.67
2019-03-31T22:48:10.934Z,44.33
2019-03-31T22:50:12.144Z,46.23
2019-03-31T22:52:13.658Z,49.30
2019-03-31T22:54:14.864Z,47.13
2019-03-31T22:56:16.080Z,46.83
2019-03-31T22:58:17.316Z,44.83
2019-03-31T23:00:24.913Z,45.13
2019-03-31T23:02:26.128Z,44.50
2019-03-31T23:04:27.472Z,43.17
2019-03-31T23:06:28.967Z,47.63
2019-03-31T23:08:30.178Z,47.23
2019-03-31T23:10:31.421Z,44.43
2019-03-31T23:12:32.635Z,47.13
2019-03-31T23:14:33.861Z,43.57
2019-03-31T23:16:35.098Z,45.30
2019-03-31T23:18:36.320Z,44.70
2019-03-31T23:20:37.568Z,46.40
2019-03-31T23:22:38.817Z,46.93
2019-03-31T23:24:40.029Z,46.90
2019-03-31T23:26:42.081Z,48.70
2019-03-31T23:28:46.393Z,44.77
2019-03-31T23:30:47.900Z,46.70
2019-03-31T23:32:49.124Z,47.83
2019-03-31T23:34:50.706Z,48.90
2019-03-31T23:36:52.273Z,45.70
2019-03-31T23:38:53.556Z,47.80
2019-03-31T23:40:54.801Z,47.57
2019-03-31T23:42:56.373Z,46.00
2019-03-31T23:44:57.620Z,48.07
2019-03-31T23:46:58.843Z,43.43
2019-03-31T23:49:00.071Z,45.63
2019-03-31T23:51:01.660Z,50.07
2019-03-31T23:53:02.896Z,47.80
2019-03-31T23:55:04.154Z,46.30
2019-03-31T23:57:05.361Z,46.53
2019-03-31T23:59:06.953Z,46.30
